Terminal Aerodrome Forecast
Issued by NWS

Home | Current Version | Previous Version | Text Only | Print | Product List | Glossary On
Versions: 1 2 3 4 5 6 7 8 9 10 11 12 13 14 15
000
FTUS45 KABQ 290538
TAFAEG
TAF
KAEG 290538Z 2906/3006 13011KT P6SM BKN120
     FM291700 13008KT P6SM SCT080 BKN150
     FM292200 13009KT P6SM VCTS SCT070CB BKN120
     FM300200 13012KT P6SM VCSH BKN070=

USA.gov is the U.S. government's official web portal to all federal, state and local government web resources and services.